Time;durP1;ratioP1;P1;durP2;ratioP2;P2;SDS_P1;SDS_P2;PMS_P1;PMS_P2;Temp;Humidity;BMP_temperature;BMP_pressure;BME280_temperature;BME280_humidity;BME280_pressure;Samples;Min_cycle;Max_cycle;Signal;HPM_P1;HPM_P2
2020/12/05 00:02:14;;;;;;;10.50;4.70;;;14.90;60.10;;;;;;5009234;28;20036;-62
2020/12/05 00:04:40;;;;;;;8.75;4.70;;;14.90;60.20;;;;;;5010875;28;20017;-63
2020/12/05 00:07:05;;;;;;;10.20;4.90;;;14.90;60.10;;;;;;5011208;28;20368;-63
2020/12/05 00:09:31;;;;;;;9.65;4.70;;;14.90;60.10;;;;;;5010306;28;20398;-63
2020/12/05 00:11:56;;;;;;;11.63;4.80;;;14.90;60.10;;;;;;5009549;28;20025;-63
2020/12/05 00:14:22;;;;;;;11.63;5.13;;;14.90;60.10;;;;;;4998643;28;20054;-63
2020/12/05 00:16:51;;;;;;;9.60;4.97;;;14.90;60.00;;;;;;5003334;28;20022;-63
2020/12/05 00:19:17;;;;;;;11.02;5.57;;;14.80;60.00;;;;;;5010299;28;20029;-63
2020/12/05 00:21:43;;;;;;;9.45;5.07;;;14.80;60.00;;;;;;5009406;28;20018;-61
2020/12/05 00:24:08;;;;;;;9.77;4.90;;;14.80;60.00;;;;;;5010708;28;20033;-62
2020/12/05 00:26:35;;;;;;;8.70;4.60;;;14.80;60.00;;;;;;5010479;28;20032;-63
2020/12/05 00:29:00;;;;;;;10.90;5.43;;;14.80;60.00;;;;;;5010679;28;20021;-63
2020/12/05 00:31:26;;;;;;;11.00;5.05;;;14.80;60.00;;;;;;5010558;28;20527;-63
2020/12/05 00:33:51;;;;;;;9.95;4.93;;;14.80;60.00;;;;;;5010398;28;20021;-62
2020/12/05 00:36:17;;;;;;;10.48;5.50;;;14.80;60.00;;;;;;5009695;28;20025;-62
2020/12/05 00:38:44;;;;;;;10.75;4.93;;;14.80;60.00;;;;;;5011092;28;20057;-62
2020/12/05 00:41:11;;;;;;;10.38;5.07;;;14.80;60.00;;;;;;5010201;28;20026;-61
2020/12/05 00:43:37;;;;;;;8.70;4.75;;;14.80;60.00;;;;;;5010678;28;20030;-63
2020/12/05 00:46:03;;;;;;;9.73;4.50;;;14.80;60.00;;;;;;5010699;28;20040;-63
2020/12/05 00:48:29;;;;;;;9.55;5.20;;;14.70;60.00;;;;;;5009177;28;20076;-62
2020/12/05 00:50:55;;;;;;;9.25;4.88;;;14.80;60.00;;;;;;5010348;28;20395;-63
2020/12/05 00:53:21;;;;;;;10.32;4.80;;;14.80;60.00;;;;;;5010613;28;20053;-63
2020/12/05 00:55:47;;;;;;;9.68;4.85;;;14.70;60.00;;;;;;5009875;28;20073;-63
2020/12/05 00:58:12;;;;;;;10.02;5.05;;;14.70;60.00;;;;;;5010417;28;20026;-62
2020/12/05 01:00:39;;;;;;;9.18;4.70;;;14.70;60.00;;;;;;5008243;28;20026;-63
2020/12/05 01:03:05;;;;;;;10.13;5.00;;;14.80;60.00;;;;;;5010103;28;20530;-63
2020/12/05 01:05:32;;;;;;;8.85;4.63;;;14.70;60.00;;;;;;5010314;28;20149;-64
2020/12/05 01:07:59;;;;;;;10.30;4.72;;;14.70;60.00;;;;;;5010617;28;20029;-63
2020/12/05 01:10:25;;;;;;;9.90;5.07;;;14.70;60.00;;;;;;5008670;28;20033;-64
2020/12/05 01:12:50;;;;;;;9.15;4.93;;;14.70;60.00;;;;;;5009743;28;20386;-63
2020/12/05 01:15:16;;;;;;;8.95;4.53;;;14.70;60.00;;;;;;5010263;28;20479;-64
2020/12/05 01:17:41;;;;;;;10.82;4.75;;;14.70;60.00;;;;;;5008646;28;20379;-63
2020/12/05 01:20:07;;;;;;;8.23;4.38;;;14.70;60.10;;;;;;5010104;28;20037;-63
2020/12/05 01:22:32;;;;;;;8.10;4.50;;;14.70;60.00;;;;;;5011437;28;20455;-63
2020/12/05 01:24:58;;;;;;;8.82;4.47;;;14.70;60.00;;;;;;5014226;28;20066;-63
2020/12/05 01:27:25;;;;;;;8.98;4.95;;;14.70;60.10;;;;;;5013767;28;20014;-63
2020/12/05 01:29:50;;;;;;;12.30;4.72;;;14.60;60.00;;;;;;5013902;28;20033;-63
2020/12/05 01:32:16;;;;;;;10.45;5.20;;;14.60;60.50;;;;;;5013406;28;20021;-63
2020/12/05 01:34:42;;;;;;;9.95;4.88;;;14.60;60.00;;;;;;5013940;28;20022;-63
2020/12/05 01:37:09;;;;;;;9.93;5.15;;;14.60;60.00;;;;;;5013572;28;20033;-62
2020/12/05 01:39:35;;;;;;;9.25;4.65;;;14.60;60.00;;;;;;5013726;28;20140;-62
2020/12/05 01:42:01;;;;;;;9.73;4.85;;;14.60;60.00;;;;;;5011691;28;20122;-63
2020/12/05 01:44:26;;;;;;;9.98;4.63;;;14.60;60.10;;;;;;5087486;22;20037;-63
2020/12/05 01:46:52;;;;;;;8.93;5.10;;;14.60;60.00;;;;;;5033288;28;20633;-63
2020/12/05 01:49:20;;;;;;;10.02;4.97;;;14.60;60.00;;;;;;5033504;28;20014;-62
2020/12/05 01:51:46;;;;;;;8.38;4.38;;;14.60;60.10;;;;;;5031345;28;20039;-62
2020/12/05 01:54:12;;;;;;;9.38;4.90;;;14.60;60.10;;;;;;5017987;28;20425;-62
2020/12/05 01:56:39;;;;;;;12.05;5.47;;;14.60;60.10;;;;;;5013428;28;20102;-61
2020/12/05 01:59:04;;;;;;;9.45;4.82;;;14.50;60.00;;;;;;5012133;28;20033;-61
2020/12/05 02:01:32;;;;;;;8.65;4.85;;;14.60;60.10;;;;;;5012264;28;20030;-61
2020/12/05 02:04:00;;;;;;;11.43;5.60;;;14.60;60.10;;;;;;5012125;28;20057;-64
2020/12/05 02:06:57;;;;;;;8.52;4.78;;;14.50;60.00;;;;;;5012964;28;20049;-61
2020/12/05 02:09:30;;;;;;;9.38;5.03;;;14.60;60.10;;;;;;5013276;28;20096;-61
2020/12/05 02:12:06;;;;;;;8.88;4.70;;;14.50;60.00;;;;;;5012902;28;20084;-64
2020/12/05 02:14:34;;;;;;;9.55;5.15;;;14.50;60.00;;;;;;5012838;28;20029;-61
2020/12/05 02:17:04;;;;;;;9.10;5.00;;;14.50;60.00;;;;;;5011634;28;20107;-61
2020/12/05 02:19:47;;;;;;;11.25;4.68;;;14.50;60.00;;;;;;5012815;28;20029;-64
2020/12/05 02:22:21;;;;;;;9.43;4.90;;;14.50;60.00;;;;;;5010593;28;20054;-61
2020/12/05 02:24:48;;;;;;;8.73;4.60;;;14.50;60.00;;;;;;5011537;28;20021;-62
2020/12/05 02:27:14;;;;;;;9.07;4.72;;;14.50;59.90;;;;;;5012726;28;20022;-63
2020/12/05 02:29:40;;;;;;;10.65;5.00;;;14.50;59.90;;;;;;5013028;28;20052;-62
2020/12/05 02:32:06;;;;;;;8.98;4.68;;;14.50;59.90;;;;;;5012196;28;20112;-61
2020/12/05 02:34:33;;;;;;;8.93;4.88;;;14.50;59.90;;;;;;5011308;28;20097;-63
2020/12/05 02:37:04;;;;;;;9.20;4.82;;;14.50;60.00;;;;;;5012620;28;20029;-61
2020/12/05 02:39:30;;;;;;;10.15;5.10;;;14.50;60.00;;;;;;5012370;28;20061;-61
2020/12/05 02:41:56;;;;;;;8.68;4.63;;;14.50;60.00;;;;;;5011820;28;20030;-61
2020/12/05 02:44:21;;;;;;;9.70;5.30;;;14.50;60.00;;;;;;5010209;28;20036;-61
2020/12/05 02:46:49;;;;;;;11.00;5.18;;;14.50;60.00;;;;;;5011636;28;20467;-62
2020/12/05 02:49:15;;;;;;;9.00;4.95;;;14.50;60.00;;;;;;5006313;28;20026;-63
2020/12/05 02:51:41;;;;;;;8.98;4.70;;;14.50;60.00;;;;;;5011794;28;20037;-62
2020/12/05 02:54:07;;;;;;;8.52;4.90;;;14.40;60.00;;;;;;5012016;28;20026;-62
2020/12/05 02:56:33;;;;;;;8.70;4.70;;;14.50;60.00;;;;;;5012395;28;20182;-61
2020/12/05 03:02:20;;;;;;;8.05;4.40;;;14.50;60.00;;;;;;5008515;28;20040;-63
2020/12/05 03:04:46;;;;;;;7.97;4.63;;;14.50;60.00;;;;;;5011685;28;20026;-61
2020/12/05 03:07:11;;;;;;;8.70;4.43;;;14.40;60.00;;;;;;5010515;28;20582;-64
2020/12/05 03:09:37;;;;;;;9.80;5.18;;;14.40;60.00;;;;;;5010396;28;20018;-61
2020/12/05 03:12:03;;;;;;;8.77;4.47;;;14.40;60.00;;;;;;5007438;28;20083;-63
2020/12/05 03:14:28;;;;;;;9.10;4.90;;;14.40;60.00;;;;;;5010834;28;20387;-61
2020/12/05 03:16:54;;;;;;;8.82;4.97;;;14.40;60.00;;;;;;5010311;28;20030;-61
2020/12/05 03:19:20;;;;;;;8.80;4.75;;;14.40;60.00;;;;;;5011376;28;20030;-62
2020/12/05 03:21:46;;;;;;;8.63;4.63;;;14.40;60.00;;;;;;5009217;28;20483;-62
2020/12/05 03:24:12;;;;;;;7.95;4.53;;;14.40;60.00;;;;;;5010353;28;20018;-63
2020/12/05 03:26:37;;;;;;;8.90;5.20;;;14.40;60.40;;;;;;5011487;28;20029;-62
2020/12/05 03:29:03;;;;;;;8.48;5.03;;;14.40;60.00;;;;;;5011418;28;20075;-62
2020/12/05 03:31:48;;;;;;;8.70;4.65;;;14.40;59.90;;;;;;5010784;28;20030;-61
2020/12/05 03:34:15;;;;;;;8.30;4.85;;;14.40;59.90;;;;;;4993283;28;20041;-62
2020/12/05 03:36:42;;;;;;;8.18;5.07;;;14.40;59.90;;;;;;5011129;28;20056;-62
2020/12/05 03:39:07;;;;;;;9.05;4.97;;;14.40;59.90;;;;;;5011109;28;20029;-61
2020/12/05 03:41:33;;;;;;;10.45;5.57;;;14.40;60.00;;;;;;5010949;28;20022;-63
2020/12/05 03:43:58;;;;;;;9.40;4.60;;;14.40;60.00;;;;;;5010483;28;20030;-61
2020/12/05 03:46:24;;;;;;;12.48;6.03;;;14.40;60.00;;;;;;5010997;28;20084;-61
2020/12/05 03:48:49;;;;;;;11.23;4.95;;;14.30;59.90;;;;;;5010839;28;20091;-61
2020/12/05 03:51:15;;;;;;;8.63;4.65;;;14.40;60.00;;;;;;5011057;28;20112;-63
2020/12/05 03:53:40;;;;;;;8.65;4.30;;;14.30;60.00;;;;;;5009557;28;20443;-61
2020/12/05 03:56:06;;;;;;;8.57;4.60;;;14.30;60.00;;;;;;5009912;28;20071;-62
2020/12/05 03:58:31;;;;;;;9.43;4.78;;;14.30;60.00;;;;;;5010308;28;20022;-62
2020/12/05 04:00:57;;;;;;;8.48;4.80;;;14.30;60.00;;;;;;5008403;28;20064;-63
2020/12/05 04:03:22;;;;;;;8.15;4.60;;;14.30;60.60;;;;;;5010331;28;20406;-61
2020/12/05 04:05:48;;;;;;;8.18;4.57;;;14.30;60.00;;;;;;5010521;28;20025;-61
2020/12/05 04:08:13;;;;;;;8.10;4.70;;;14.30;60.10;;;;;;5010602;28;20360;-62
2020/12/05 04:10:39;;;;;;;8.82;5.00;;;14.30;60.10;;;;;;5009282;28;20239;-64
2020/12/05 04:13:04;;;;;;;8.32;5.03;;;14.30;60.10;;;;;;5009368;28;20041;-61
2020/12/05 04:15:30;;;;;;;8.52;4.78;;;14.30;60.00;;;;;;5010860;28;20386;-61
2020/12/05 04:17:55;;;;;;;8.13;4.57;;;14.30;60.10;;;;;;5010321;28;20026;-62
2020/12/05 04:20:21;;;;;;;7.68;4.55;;;14.30;60.00;;;;;;5010570;28;20026;-64
2020/12/05 04:22:46;;;;;;;9.45;5.07;;;14.30;60.00;;;;;;5008808;28;20673;-61
2020/12/05 04:25:12;;;;;;;9.88;5.28;;;14.30;60.00;;;;;;5009263;28;20021;-62
2020/12/05 04:27:38;;;;;;;9.02;5.03;;;14.30;60.00;;;;;;5009443;28;20022;-63
2020/12/05 04:30:04;;;;;;;9.43;4.95;;;14.30;60.00;;;;;;5010636;28;20029;-61
2020/12/05 04:32:29;;;;;;;7.43;4.50;;;14.30;60.50;;;;;;5009876;28;20021;-62
2020/12/05 04:34:56;;;;;;;8.43;4.90;;;14.20;59.90;;;;;;5009759;28;20091;-61
2020/12/05 04:37:23;;;;;;;8.88;5.35;;;14.20;59.90;;;;;;5006961;28;20110;-63
2020/12/05 04:39:48;;;;;;;8.82;4.90;;;14.20;60.00;;;;;;5010172;28;20064;-61
2020/12/05 04:42:15;;;;;;;8.25;4.90;;;14.20;59.90;;;;;;5009864;28;20356;-62
2020/12/05 04:44:41;;;;;;;8.10;4.88;;;14.20;59.90;;;;;;5009215;28;20116;-61
2020/12/05 04:47:08;;;;;;;8.73;5.07;;;14.20;59.90;;;;;;5010073;28;20105;-62
2020/12/05 04:49:35;;;;;;;8.35;4.88;;;14.20;59.90;;;;;;5010031;28;20442;-61
2020/12/05 04:52:17;;;;;;;9.57;5.22;;;14.20;60.00;;;;;;5008395;28;20026;-61
2020/12/05 04:54:48;;;;;;;8.32;4.93;;;14.20;60.00;;;;;;5010040;28;20702;-61
2020/12/05 04:57:20;;;;;;;8.23;4.47;;;14.20;60.00;;;;;;5011266;28;20058;-62
2020/12/05 04:59:47;;;;;;;9.60;5.05;;;14.10;60.00;;;;;;5014245;28;20035;-63
2020/12/05 05:02:17;;;;;;;10.13;4.93;;;14.20;60.00;;;;;;5012898;28;20069;-61
2020/12/05 05:04:42;;;;;;;8.65;5.03;;;14.20;60.00;;;;;;5013904;28;20076;-61
2020/12/05 05:07:08;;;;;;;7.82;4.70;;;14.20;60.00;;;;;;5013596;28;20046;-61
2020/12/05 05:09:34;;;;;;;9.50;4.93;;;14.20;60.10;;;;;;5012597;28;20475;-61
2020/12/05 05:11:59;;;;;;;10.82;4.80;;;14.20;60.00;;;;;;5013345;28;20665;-62
2020/12/05 05:14:34;;;;;;;7.82;4.60;;;14.20;60.10;;;;;;5013687;28;20033;-62
2020/12/05 05:17:05;;;;;;;8.02;4.43;;;14.20;60.10;;;;;;5013920;28;20026;-63
2020/12/05 05:19:34;;;;;;;8.23;4.60;;;14.20;60.10;;;;;;5012534;28;20038;-61
2020/12/05 05:21:59;;;;;;;8.50;4.72;;;14.10;60.00;;;;;;5013485;28;20026;-63
2020/12/05 05:24:25;;;;;;;8.07;4.70;;;14.10;60.00;;;;;;5011007;28;20071;-61
2020/12/05 05:27:02;;;;;;;8.25;4.90;;;14.10;60.10;;;;;;5012156;28;20064;-62
2020/12/05 05:29:36;;;;;;;8.43;4.95;;;14.10;60.00;;;;;;5014217;28;20431;-62
2020/12/05 05:32:15;;;;;;;8.70;4.93;;;14.10;60.00;;;;;;5012981;28;20080;-61
2020/12/05 05:34:41;;;;;;;8.77;4.50;;;14.10;60.00;;;;;;5013753;28;20037;-61
2020/12/05 05:37:34;;;;;;;9.20;5.30;;;14.10;60.00;;;;;;5013304;28;20021;-63
2020/12/05 05:40:01;;;;;;;8.25;4.95;;;14.10;60.00;;;;;;5012091;28;20045;-62
2020/12/05 05:42:36;;;;;;;10.30;5.50;;;14.10;60.00;;;;;;5013217;28;20072;-62
2020/12/05 05:45:27;;;;;;;9.13;5.15;;;14.10;60.00;;;;;;5008777;28;20037;-61
2020/12/05 05:48:00;;;;;;;9.35;5.47;;;14.10;60.00;;;;;;5003969;28;20021;-63
2020/12/05 05:50:34;;;;;;;9.43;6.05;;;14.00;60.00;;;;;;5011441;28;20022;-61
2020/12/05 05:53:06;;;;;;;11.50;6.72;;;14.10;60.10;;;;;;5012815;28;20034;-61
2020/12/05 05:55:52;;;;;;;10.38;6.15;;;14.10;60.10;;;;;;5013599;28;20022;-61
2020/12/05 05:58:21;;;;;;;9.70;5.50;;;14.00;60.10;;;;;;5012902;28;20382;-61
2020/12/05 06:00:50;;;;;;;9.85;6.40;;;14.00;60.10;;;;;;5012984;28;20029;-62
2020/12/05 06:03:33;;;;;;;10.43;5.90;;;14.00;60.20;;;;;;5003697;28;20030;-61
2020/12/05 06:05:59;;;;;;;11.35;5.55;;;14.00;60.20;;;;;;5012953;28;20022;-62
2020/12/05 06:08:26;;;;;;;9.50;5.68;;;14.00;60.20;;;;;;5012812;28;20018;-61
2020/12/05 06:11:05;;;;;;;8.95;5.47;;;14.00;60.30;;;;;;5013213;28;20029;-62
2020/12/05 06:13:32;;;;;;;9.55;5.72;;;14.00;60.30;;;;;;5011797;28;20021;-62
2020/12/05 06:16:00;;;;;;;10.65;5.63;;;14.00;60.30;;;;;;5012557;28;20030;-63
2020/12/05 06:18:26;;;;;;;17.65;14.10;;;14.00;60.30;;;;;;5006413;28;20026;-63
2020/12/05 06:20:53;;;;;;;16.27;11.10;;;14.00;60.30;;;;;;5011700;28;20018;-60
2020/12/05 06:23:45;;;;;;;10.93;7.65;;;14.00;60.20;;;;;;5012330;28;20030;-60
2020/12/05 06:26:18;;;;;;;11.35;6.75;;;14.00;60.00;;;;;;5009305;28;20026;-61
2020/12/05 06:28:44;;;;;;;11.80;6.63;;;14.00;60.20;;;;;;5011289;28;20041;-61
2020/12/05 06:31:10;;;;;;;15.57;7.22;;;14.00;60.10;;;;;;5011413;28;20029;-61
2020/12/05 06:33:44;;;;;;;10.70;5.80;;;14.00;60.10;;;;;;5010863;28;20030;-62
2020/12/05 06:36:35;;;;;;;10.38;5.90;;;14.00;60.10;;;;;;5008253;28;20426;-63
2020/12/05 06:39:07;;;;;;;12.18;6.07;;;14.00;60.00;;;;;;5011442;28;20034;-60
2020/12/05 06:41:34;;;;;;;11.30;6.13;;;14.00;60.20;;;;;;5011447;28;20060;-61
2020/12/05 06:44:35;;;;;;;11.77;6.13;;;14.10;60.30;;;;;;5011430;28;20030;-61
2020/12/05 06:47:08;;;;;;;10.80;6.18;;;14.10;60.30;;;;;;5011018;28;20060;-61
2020/12/05 06:49:39;;;;;;;11.25;6.60;;;14.10;60.40;;;;;;5011379;28;20022;-61
2020/12/05 06:52:26;;;;;;;9.77;5.80;;;14.10;60.50;;;;;;5011371;28;20041;-61
2020/12/05 06:54:53;;;;;;;12.27;6.03;;;14.10;60.50;;;;;;5009841;28;20487;-62
2020/12/05 06:57:20;;;;;;;12.13;6.45;;;14.10;60.70;;;;;;5026788;28;20025;-61
2020/12/05 06:59:46;;;;;;;16.80;9.35;;;14.10;60.80;;;;;;5010261;28;20022;-62
2020/12/05 07:02:32;;;;;;;14.00;8.15;;;14.10;60.70;;;;;;5010109;28;20021;-62
2020/12/05 07:05:16;;;;;;;12.43;6.60;;;14.10;60.60;;;;;;5011255;28;20503;-61
2020/12/05 07:07:41;;;;;;;16.02;6.75;;;14.20;60.80;;;;;;5008269;28;20026;-61
2020/12/05 07:10:07;;;;;;;13.07;6.55;;;14.20;61.10;;;;;;5005681;28;20102;-60
2020/12/05 07:12:40;;;;;;;15.05;6.32;;;14.20;61.10;;;;;;5005811;28;20030;-62
2020/12/05 07:15:28;;;;;;;13.38;6.35;;;14.30;60.90;;;;;;5004924;28;20096;-62
2020/12/05 07:17:55;;;;;;;17.10;6.43;;;14.40;61.00;;;;;;4997109;28;20068;-63
2020/12/05 07:20:22;;;;;;;13.68;6.32;;;14.40;61.10;;;;;;5006142;28;20054;-61
2020/12/05 07:25:50;;;;;;;15.60;6.03;;;14.50;61.30;;;;;;4962502;28;20082;-62
2020/12/05 07:28:17;;;;;;;15.77;6.63;;;14.60;61.20;;;;;;4976152;28;20500;-62
2020/12/05 07:30:43;;;;;;;14.05;6.05;;;14.60;61.00;;;;;;4966467;28;20026;-63
2020/12/05 07:33:11;;;;;;;12.45;6.13;;;14.60;61.30;;;;;;4964895;28;20031;-64
2020/12/05 07:35:36;;;;;;;12.85;5.65;;;14.70;61.30;;;;;;4961936;28;20023;-63
2020/12/05 07:38:14;;;;;;;12.40;5.93;;;14.70;61.20;;;;;;4965762;28;20038;-62
2020/12/05 07:40:39;;;;;;;31.42;6.65;;;14.70;61.50;;;;;;4966327;28;20118;-62
2020/12/05 07:43:15;;;;;;;11.60;5.43;;;14.70;61.70;;;;;;4965196;28;20117;-61
2020/12/05 07:45:41;;;;;;;10.73;4.90;;;14.90;61.40;;;;;;4980950;28;20030;-62
2020/12/05 07:48:14;;;;;;;11.80;5.75;;;14.90;61.30;;;;;;4976126;28;20888;-63
2020/12/05 07:50:39;;;;;;;12.93;5.65;;;14.90;61.10;;;;;;4970637;28;20023;-62
2020/12/05 07:53:22;;;;;;;13.93;5.85;;;14.90;61.00;;;;;;4962689;28;20037;-61
2020/12/05 07:55:48;;;;;;;10.00;5.20;;;14.90;61.00;;;;;;4968447;28;20035;-62
2020/12/05 07:58:13;;;;;;;10.45;5.22;;;14.90;60.90;;;;;;4966103;28;20088;-61
2020/12/05 08:00:39;;;;;;;11.45;5.13;;;14.90;60.90;;;;;;4966091;28;20042;-60
2020/12/05 08:03:39;;;;;;;9.63;4.93;;;14.90;60.90;;;;;;4974830;28;20033;-63
2020/12/05 08:06:15;;;;;;;11.82;5.07;;;14.90;61.00;;;;;;4957598;28;20030;-62
2020/12/05 08:08:51;;;;;;;13.93;5.05;;;14.90;60.90;;;;;;4978129;28;20511;-62
2020/12/05 08:11:17;;;;;;;15.52;5.75;;;14.90;61.10;;;;;;4964243;28;20440;-62
2020/12/05 08:13:42;;;;;;;18.00;9.32;;;14.90;61.20;;;;;;4964163;28;20069;-61
2020/12/05 08:16:08;;;;;;;14.38;6.75;;;14.90;61.10;;;;;;4965770;28;20031;-61
2020/12/05 08:18:37;;;;;;;14.00;7.20;;;15.00;61.10;;;;;;4964772;28;20401;-62
2020/12/05 08:21:05;;;;;;;13.18;6.72;;;15.00;60.90;;;;;;4978933;28;20767;-64
2020/12/05 08:23:33;;;;;;;10.93;6.68;;;15.00;60.80;;;;;;4980137;28;20027;-61
2020/12/05 08:26:07;;;;;;;22.00;8.43;;;15.00;60.60;;;;;;4964896;28;20031;-64
2020/12/05 08:28:39;;;;;;;11.93;6.03;;;15.10;60.50;;;;;;4966319;28;20026;-62
2020/12/05 08:31:10;;;;;;;12.93;6.38;;;15.10;61.00;;;;;;4966127;28;20034;-62
2020/12/05 08:33:49;;;;;;;12.52;6.55;;;15.10;60.30;;;;;;4965320;28;20484;-62
2020/12/05 08:36:20;;;;;;;17.40;6.25;;;15.20;60.20;;;;;;4966494;28;20094;-62
2020/12/05 08:38:47;;;;;;;21.13;6.50;;;15.20;60.10;;;;;;4966430;28;20067;-62
2020/12/05 08:41:13;;;;;;;15.25;6.55;;;15.30;60.30;;;;;;4961822;28;20126;-64
2020/12/05 08:43:39;;;;;;;14.43;6.10;;;15.40;60.80;;;;;;4964651;28;20039;-64
2020/12/05 08:46:15;;;;;;;23.38;6.43;;;15.40;60.90;;;;;;4965318;28;20027;-64
2020/12/05 08:48:41;;;;;;;15.45;6.72;;;15.40;61.00;;;;;;4963136;28;20039;-63
2020/12/05 08:51:07;;;;;;;13.88;5.63;;;15.50;61.60;;;;;;4971669;28;20491;-63
2020/12/05 08:53:33;;;;;;;20.55;6.75;;;15.60;61.50;;;;;;4968534;28;20034;-63
2020/12/05 08:56:01;;;;;;;17.88;6.75;;;15.60;61.30;;;;;;4979897;28;20033;-63
2020/12/05 08:58:41;;;;;;;13.30;6.70;;;15.70;60.80;;;;;;4964311;28;20491;-62
2020/12/05 09:01:07;;;;;;;18.25;6.70;;;15.70;60.10;;;;;;4985967;28;20939;-61
2020/12/05 09:03:37;;;;;;;15.43;6.25;;;15.70;60.60;;;;;;4983679;28;20027;-61
2020/12/05 09:06:03;;;;;;;13.40;5.95;;;15.70;60.30;;;;;;4987103;28;20023;-60
2020/12/05 09:08:28;;;;;;;11.52;5.45;;;15.70;60.60;;;;;;4980223;28;20830;-62
2020/12/05 09:10:54;;;;;;;11.52;5.32;;;15.70;60.90;;;;;;4964659;28;20023;-61
2020/12/05 09:13:20;;;;;;;10.05;4.97;;;15.70;61.00;;;;;;4971945;28;20044;-61
2020/12/05 09:16:15;;;;;;;11.88;5.05;;;15.70;60.80;;;;;;4984524;28;20027;-61
2020/12/05 09:18:42;;;;;;;14.80;5.43;;;15.70;60.70;;;;;;4979705;28;20030;-62
2020/12/05 09:21:19;;;;;;;9.23;5.18;;;15.70;60.70;;;;;;4969702;28;20039;-65
2020/12/05 09:24:01;;;;;;;17.67;6.22;;;15.70;60.70;;;;;;4979514;28;20514;-62
2020/12/05 09:26:27;;;;;;;14.02;4.80;;;15.70;60.50;;;;;;4955077;28;20031;-62
2020/12/05 09:28:53;;;;;;;11.23;5.10;;;15.70;60.50;;;;;;4946235;28;20019;-64
2020/12/05 09:31:19;;;;;;;13.05;5.38;;;15.70;60.50;;;;;;4963450;28;20058;-65
2020/12/05 09:33:45;;;;;;;14.45;5.35;;;15.80;60.60;;;;;;4965372;28;20094;-63
2020/12/05 09:36:12;;;;;;;10.35;5.72;;;15.80;60.40;;;;;;4965524;28;20033;-63
2020/12/05 09:38:38;;;;;;;12.57;5.93;;;15.90;60.30;;;;;;4962539;28;20657;-63
2020/12/05 09:41:03;;;;;;;15.35;6.05;;;16.00;60.40;;;;;;4980446;28;20129;-63
2020/12/05 09:43:29;;;;;;;9.18;4.93;;;16.20;60.00;;;;;;4966700;28;20030;-62
2020/12/05 09:45:54;;;;;;;11.02;4.90;;;16.30;59.70;;;;;;4968825;28;20035;-63
2020/12/05 09:48:20;;;;;;;12.27;4.95;;;16.40;59.70;;;;;;4968490;28;20046;-65
2020/12/05 09:50:46;;;;;;;10.65;5.22;;;16.30;59.60;;;;;;4983871;28;20031;-62
2020/12/05 09:53:12;;;;;;;9.38;4.57;;;16.30;60.00;;;;;;4994535;28;20034;-62
2020/12/05 09:55:37;;;;;;;10.85;4.80;;;16.30;59.80;;;;;;4969195;28;20072;-64
2020/12/05 09:58:03;;;;;;;9.10;4.60;;;16.30;59.90;;;;;;4979284;28;20073;-64
2020/12/05 10:00:29;;;;;;;8.73;4.78;;;16.30;59.90;;;;;;4986363;28;20497;-65
2020/12/05 10:02:54;;;;;;;7.72;4.53;;;16.40;60.10;;;;;;4982392;28;20053;-64
2020/12/05 10:05:20;;;;;;;11.98;5.22;;;16.30;59.60;;;;;;4967541;28;20628;-63
2020/12/05 10:07:46;;;;;;;9.95;4.25;;;16.40;59.90;;;;;;4983184;28;20032;-62
2020/12/05 10:10:12;;;;;;;8.65;4.75;;;16.40;59.70;;;;;;4977473;28;20034;-64
2020/12/05 10:12:38;;;;;;;8.70;4.88;;;16.40;59.80;;;;;;4985855;28;20034;-63
2020/12/05 10:15:05;;;;;;;9.73;4.22;;;16.60;59.80;;;;;;4987815;28;20043;-63
2020/12/05 10:17:32;;;;;;;9.23;4.85;;;16.60;59.30;;;;;;4987965;28;20034;-64
2020/12/05 10:19:58;;;;;;;7.65;3.97;;;16.70;58.80;;;;;;4987974;28;20534;-64
2020/12/05 10:22:24;;;;;;;7.60;4.32;;;16.60;58.80;;;;;;4987704;28;20022;-63
2020/12/05 10:24:50;;;;;;;8.43;4.35;;;16.60;59.20;;;;;;4974009;28;20026;-63
2020/12/05 10:27:16;;;;;;;7.22;3.97;;;16.60;59.00;;;;;;4968283;28;20053;-64
2020/12/05 10:29:42;;;;;;;8.43;4.13;;;16.70;58.80;;;;;;4982951;28;20026;-63
2020/12/05 10:32:08;;;;;;;8.20;3.83;;;16.60;58.70;;;;;;4967903;28;20035;-64
2020/12/05 10:34:33;;;;;;;7.82;4.60;;;16.60;59.30;;;;;;4981810;28;20027;-63
2020/12/05 10:36:59;;;;;;;7.38;3.95;;;16.50;59.00;;;;;;4966356;28;20093;-64
2020/12/05 10:39:24;;;;;;;7.57;3.65;;;16.50;59.00;;;;;;4967747;28;20037;-64
2020/12/05 10:41:50;;;;;;;8.27;4.05;;;16.50;59.00;;;;;;4981413;28;20478;-63
2020/12/05 10:44:16;;;;;;;7.20;3.95;;;16.50;59.10;;;;;;4965964;28;20037;-64
2020/12/05 10:46:44;;;;;;;7.18;3.33;;;16.40;59.10;;;;;;4970128;28;20026;-63
2020/12/05 10:49:10;;;;;;;7.35;4.13;;;16.40;59.10;;;;;;4967894;28;20035;-63
2020/12/05 10:51:36;;;;;;;7.63;3.45;;;16.40;59.10;;;;;;4967958;28;20031;-63
2020/12/05 10:54:03;;;;;;;7.00;3.50;;;16.30;59.00;;;;;;4981776;28;20241;-64
2020/12/05 10:56:29;;;;;;;6.30;3.40;;;16.30;59.00;;;;;;4997105;28;20622;-62
2020/12/05 10:58:54;;;;;;;7.43;3.97;;;16.30;58.90;;;;;;4965923;28;20074;-65
2020/12/05 11:01:20;;;;;;;7.30;3.03;;;16.30;58.90;;;;;;4967426;28;20403;-63
2020/12/05 11:03:45;;;;;;;8.52;3.53;;;16.30;58.80;;;;;;4967112;28;20503;-63
2020/12/05 11:06:11;;;;;;;8.98;3.50;;;16.30;58.70;;;;;;4986953;28;20582;-63
2020/12/05 11:08:37;;;;;;;7.18;3.53;;;16.30;58.70;;;;;;4987199;28;20106;-66
2020/12/05 11:11:02;;;;;;;7.15;3.25;;;16.20;58.50;;;;;;4987051;28;20466;-62
2020/12/05 11:13:28;;;;;;;7.35;3.50;;;16.20;58.70;;;;;;4974048;28;20041;-64
2020/12/05 11:15:53;;;;;;;9.10;3.45;;;16.20;58.50;;;;;;4953818;28;20039;-63
2020/12/05 11:18:19;;;;;;;12.82;3.90;;;16.20;58.70;;;;;;4964772;28;20070;-62
2020/12/05 11:20:44;;;;;;;7.07;3.63;;;16.20;58.70;;;;;;4982362;28;20023;-62
2020/12/05 11:23:10;;;;;;;14.32;4.90;;;16.20;58.80;;;;;;4981475;28;20027;-61
2020/12/05 11:25:35;;;;;;;23.38;4.43;;;16.10;58.90;;;;;;4959704;28;20023;-61
2020/12/05 11:28:01;;;;;;;16.20;4.20;;;16.20;59.10;;;;;;4966638;28;20035;-62
2020/12/05 11:30:26;;;;;;;12.73;4.53;;;16.10;58.90;;;;;;4965280;28;20045;-62
2020/12/05 11:32:52;;;;;;;11.32;3.88;;;16.10;58.70;;;;;;4965576;28;20039;-61
2020/12/05 11:35:17;;;;;;;12.02;3.92;;;16.10;58.60;;;;;;4966372;28;20038;-63
2020/12/05 11:37:43;;;;;;;12.15;4.00;;;16.10;59.00;;;;;;4966656;28;20031;-63
2020/12/05 11:40:10;;;;;;;10.55;3.80;;;16.10;58.80;;;;;;4964848;28;20495;-62
2020/12/05 11:42:36;;;;;;;10.43;3.53;;;16.10;58.90;;;;;;4965799;28;20042;-61
2020/12/05 11:45:03;;;;;;;7.78;3.47;;;16.10;58.90;;;;;;4965758;28;20496;-63
2020/12/05 11:47:29;;;;;;;8.93;3.63;;;16.00;58.90;;;;;;4980578;28;20038;-61
2020/12/05 11:49:54;;;;;;;9.13;3.38;;;16.00;58.80;;;;;;4966070;28;20498;-61
2020/12/05 11:52:20;;;;;;;7.65;3.10;;;16.00;58.90;;;;;;4964845;28;20306;-62
2020/12/05 11:54:46;;;;;;;9.45;3.55;;;16.00;58.90;;;;;;4965896;28;20415;-61
2020/12/05 11:57:11;;;;;;;8.60;3.20;;;16.00;58.90;;;;;;4966000;28;20045;-62
2020/12/05 11:59:40;;;;;;;8.27;3.63;;;16.00;58.90;;;;;;4965985;28;20027;-63
2020/12/05 12:02:05;;;;;;;7.30;3.50;;;16.00;58.90;;;;;;4980307;28;20399;-60
2020/12/05 12:04:31;;;;;;;9.73;2.80;;;15.90;58.90;;;;;;4965544;28;20023;-63
2020/12/05 12:06:56;;;;;;;10.02;3.25;;;15.90;58.80;;;;;;4965399;28;20045;-62
2020/12/05 12:09:22;;;;;;;7.05;2.78;;;15.90;58.80;;;;;;4965746;28;20037;-64
2020/12/05 12:11:47;;;;;;;6.60;3.13;;;15.90;58.80;;;;;;4965987;28;20129;-63
2020/12/05 12:14:13;;;;;;;7.78;3.05;;;15.90;58.80;;;;;;4965308;28;20394;-64
2020/12/05 12:16:38;;;;;;;5.60;3.03;;;15.90;58.50;;;;;;4965807;28;20030;-63
2020/12/05 12:19:04;;;;;;;7.10;3.08;;;15.90;58.50;;;;;;4964204;28;20507;-62
2020/12/05 12:21:29;;;;;;;5.57;2.70;;;15.90;58.50;;;;;;4964314;28;20151;-62
2020/12/05 12:23:55;;;;;;;6.28;3.05;;;15.90;58.60;;;;;;4964926;28;20031;-64
2020/12/05 12:26:27;;;;;;;6.28;2.72;;;16.00;58.70;;;;;;4965412;28;20058;-62
2020/12/05 12:28:52;;;;;;;;;;;16.00;58.50;;;;;;4966128;28;20030;-62
2020/12/05 12:31:21;;;;;;;6.80;3.25;;;16.00;58.20;;;;;;4960840;28;19914;-64
2020/12/05 12:33:46;;;;;;;7.10;2.88;;;16.00;58.30;;;;;;4964630;28;20054;-62
2020/12/05 12:36:16;;;;;;;7.25;3.40;;;16.10;57.90;;;;;;4965064;28;20047;-61
2020/12/05 12:38:41;;;;;;;5.75;2.78;;;16.10;57.70;;;;;;4964881;28;20844;-62
2020/12/05 12:41:07;;;;;;;6.05;3.00;;;16.20;57.60;;;;;;4965185;28;20034;-62
2020/12/05 12:43:32;;;;;;;9.75;3.65;;;16.30;57.30;;;;;;4964808;28;20048;-62
2020/12/05 12:45:58;;;;;;;6.15;3.22;;;16.30;57.30;;;;;;4965044;28;20043;-63
2020/12/05 12:50:49;;;;;;;6.60;3.33;;;16.20;57.30;;;;;;4960214;28;20033;-64
2020/12/05 12:53:15;;;;;;;9.43;3.80;;;16.20;57.40;;;;;;4963091;28;20026;-64
2020/12/05 12:55:41;;;;;;;7.70;3.30;;;16.20;57.50;;;;;;4965468;28;20400;-62
2020/12/05 13:00:38;;;;;;;6.63;3.25;;;16.30;58.20;;;;;;4965481;28;20454;-63